sensor_id;sensor_type;location;lat;lon;timestamp;temperature;humidity
56428;DHT22;42331;53.578;9.760;2023-07-13T00:00:14;15.50;99.90
56428;DHT22;42331;53.578;9.760;2023-07-13T00:02:46;15.50;99.90
56428;DHT22;42331;53.578;9.760;2023-07-13T00:05:17;15.50;99.90
56428;DHT22;42331;53.578;9.760;2023-07-13T00:07:49;15.50;99.90
56428;DHT22;42331;53.578;9.760;2023-07-13T00:10:21;15.40;99.90
56428;DHT22;42331;53.578;9.760;2023-07-13T00:12:51;15.40;99.90
56428;DHT22;42331;53.578;9.760;2023-07-13T00:15:26;15.40;99.90
56428;DHT22;42331;53.578;9.760;2023-07-13T00:17:57;15.40;99.90
56428;DHT22;42331;53.578;9.760;2023-07-13T00:20:28;15.40;99.90
56428;DHT22;42331;53.578;9.760;2023-07-13T00:22:59;15.40;99.90
56428;DHT22;42331;53.578;9.760;2023-07-13T00:25:29;15.40;99.90
56428;DHT22;42331;53.578;9.760;2023-07-13T00:28:00;15.40;99.90
56428;DHT22;42331;53.578;9.760;2023-07-13T00:30:31;15.30;99.90
56428;DHT22;42331;53.578;9.760;2023-07-13T00:33:02;15.30;99.90
56428;DHT22;42331;53.578;9.760;2023-07-13T00:35:34;15.30;99.90
56428;DHT22;42331;53.578;9.760;2023-07-13T00:38:05;15.30;99.90
56428;DHT22;42331;53.578;9.760;2023-07-13T00:40:36;15.30;99.90
56428;DHT22;42331;53.578;9.760;2023-07-13T00:43:18;15.30;99.90
56428;DHT22;42331;53.578;9.760;2023-07-13T00:48:27;15.30;99.90
56428;DHT22;42331;53.578;9.760;2023-07-13T00:51:00;15.30;99.90
56428;DHT22;42331;53.578;9.760;2023-07-13T00:53:32;15.30;99.90
56428;DHT22;42331;53.578;9.760;2023-07-13T00:56:05;15.30;99.90
56428;DHT22;42331;53.578;9.760;2023-07-13T00:58:37;15.30;99.90
56428;DHT22;42331;53.578;9.760;2023-07-13T01:01:08;15.30;99.90
56428;DHT22;42331;53.578;9.760;2023-07-13T01:03:39;15.30;99.90
56428;DHT22;42331;53.578;9.760;2023-07-13T01:06:10;15.30;99.90
56428;DHT22;42331;53.578;9.760;2023-07-13T01:08:41;15.30;99.90
56428;DHT22;42331;53.578;9.760;2023-07-13T01:11:12;15.30;99.90
56428;DHT22;42331;53.578;9.760;2023-07-13T01:13:48;15.30;99.90
56428;DHT22;42331;53.578;9.760;2023-07-13T01:16:26;15.30;99.90
56428;DHT22;42331;53.578;9.760;2023-07-13T01:18:58;15.30;99.90
56428;DHT22;42331;53.578;9.760;2023-07-13T01:21:32;15.30;99.90
56428;DHT22;42331;53.578;9.760;2023-07-13T01:24:03;15.30;99.90
56428;DHT22;42331;53.578;9.760;2023-07-13T01:26:34;15.30;99.90
56428;DHT22;42331;53.578;9.760;2023-07-13T01:29:05;15.30;99.90
56428;DHT22;42331;53.578;9.760;2023-07-13T01:31:35;15.30;99.90
56428;DHT22;42331;53.578;9.760;2023-07-13T01:34:06;15.30;99.90
56428;DHT22;42331;53.578;9.760;2023-07-13T01:36:37;15.20;99.90
56428;DHT22;42331;53.578;9.760;2023-07-13T01:39:08;15.30;99.90
56428;DHT22;42331;53.578;9.760;2023-07-13T01:41:38;15.20;99.90
56428;DHT22;42331;53.578;9.760;2023-07-13T01:44:09;15.20;99.90
56428;DHT22;42331;53.578;9.760;2023-07-13T01:46:40;15.20;99.90
56428;DHT22;42331;53.578;9.760;2023-07-13T01:49:10;15.20;99.90
56428;DHT22;42331;53.578;9.760;2023-07-13T01:51:41;15.20;99.90
56428;DHT22;42331;53.578;9.760;2023-07-13T01:54:12;15.20;99.90
56428;DHT22;42331;53.578;9.760;2023-07-13T01:56:43;15.20;99.90
56428;DHT22;42331;53.578;9.760;2023-07-13T01:59:14;15.10;99.90
56428;DHT22;42331;53.578;9.760;2023-07-13T02:01:45;15.10;99.90
56428;DHT22;42331;53.578;9.760;2023-07-13T02:04:15;15.10;99.90
56428;DHT22;42331;53.578;9.760;2023-07-13T02:06:46;15.10;99.90
56428;DHT22;42331;53.578;9.760;2023-07-13T02:09:17;15.00;99.90
56428;DHT22;42331;53.578;9.760;2023-07-13T02:11:48;15.00;99.90
56428;DHT22;42331;53.578;9.760;2023-07-13T02:14:18;15.00;99.90
56428;DHT22;42331;53.578;9.760;2023-07-13T02:16:49;15.00;99.90
56428;DHT22;42331;53.578;9.760;2023-07-13T02:19:20;15.00;99.90
56428;DHT22;42331;53.578;9.760;2023-07-13T02:21:51;15.00;99.90
56428;DHT22;42331;53.578;9.760;2023-07-13T02:24:21;14.90;99.90
56428;DHT22;42331;53.578;9.760;2023-07-13T02:26:52;14.90;99.90
56428;DHT22;42331;53.578;9.760;2023-07-13T02:29:23;14.90;99.90
56428;DHT22;42331;53.578;9.760;2023-07-13T02:31:54;14.80;99.90
56428;DHT22;42331;53.578;9.760;2023-07-13T02:34:24;14.90;99.90
56428;DHT22;42331;53.578;9.760;2023-07-13T02:36:55;14.90;99.90
56428;DHT22;42331;53.578;9.760;2023-07-13T02:39:26;14.80;99.90
56428;DHT22;42331;53.578;9.760;2023-07-13T02:41:56;14.80;99.90
56428;DHT22;42331;53.578;9.760;2023-07-13T02:44:27;14.80;99.90
56428;DHT22;42331;53.578;9.760;2023-07-13T02:46:58;14.80;99.90
56428;DHT22;42331;53.578;9.760;2023-07-13T02:49:29;14.80;99.90
56428;DHT22;42331;53.578;9.760;2023-07-13T02:51:59;14.80;99.90
56428;DHT22;42331;53.578;9.760;2023-07-13T02:54:30;14.70;99.90
56428;DHT22;42331;53.578;9.760;2023-07-13T02:57:01;14.70;99.90
56428;DHT22;42331;53.578;9.760;2023-07-13T02:59:31;14.70;99.90
56428;DHT22;42331;53.578;9.760;2023-07-13T03:02:03;14.70;99.90
56428;DHT22;42331;53.578;9.760;2023-07-13T03:04:36;14.70;99.90
56428;DHT22;42331;53.578;9.760;2023-07-13T03:07:07;14.70;99.90
56428;DHT22;42331;53.578;9.760;2023-07-13T03:09:38;14.60;99.90
56428;DHT22;42331;53.578;9.760;2023-07-13T03:12:08;14.60;99.90
56428;DHT22;42331;53.578;9.760;2023-07-13T03:14:39;14.60;99.90
56428;DHT22;42331;53.578;9.760;2023-07-13T03:17:10;14.60;99.90
56428;DHT22;42331;53.578;9.760;2023-07-13T03:19:40;14.60;99.90
56428;DHT22;42331;53.578;9.760;2023-07-13T03:22:11;14.60;99.90
56428;DHT22;42331;53.578;9.760;2023-07-13T03:24:42;14.60;99.90
56428;DHT22;42331;53.578;9.760;2023-07-13T03:27:13;14.60;99.90
56428;DHT22;42331;53.578;9.760;2023-07-13T03:29:43;14.60;99.90
56428;DHT22;42331;53.578;9.760;2023-07-13T03:32:14;14.60;99.90
56428;DHT22;42331;53.578;9.760;2023-07-13T03:34:45;14.60;99.90
56428;DHT22;42331;53.578;9.760;2023-07-13T03:37:15;14.60;99.90
56428;DHT22;42331;53.578;9.760;2023-07-13T03:39:46;14.60;99.90
56428;DHT22;42331;53.578;9.760;2023-07-13T03:42:17;14.50;99.90
56428;DHT22;42331;53.578;9.760;2023-07-13T03:44:48;14.50;99.90
56428;DHT22;42331;53.578;9.760;2023-07-13T03:47:22;14.50;99.90
56428;DHT22;42331;53.578;9.760;2023-07-13T03:49:53;14.40;99.90
56428;DHT22;42331;53.578;9.760;2023-07-13T03:52:24;14.40;99.90
56428;DHT22;42331;53.578;9.760;2023-07-13T03:54:54;14.40;99.90
56428;DHT22;42331;53.578;9.760;2023-07-13T03:57:25;14.40;99.90
56428;DHT22;42331;53.578;9.760;2023-07-13T03:59:56;14.40;99.90
56428;DHT22;42331;53.578;9.760;2023-07-13T04:02:27;14.40;99.90
56428;DHT22;42331;53.578;9.760;2023-07-13T04:04:58;14.40;99.90
56428;DHT22;42331;53.578;9.760;2023-07-13T04:07:28;14.40;99.90
56428;DHT22;42331;53.578;9.760;2023-07-13T04:09:59;14.40;99.90
56428;DHT22;42331;53.578;9.760;2023-07-13T04:12:30;14.40;99.90
56428;DHT22;42331;53.578;9.760;2023-07-13T04:15:00;14.40;99.90
56428;DHT22;42331;53.578;9.760;2023-07-13T04:17:31;14.40;99.90
56428;DHT22;42331;53.578;9.760;2023-07-13T04:20:02;14.40;99.90
56428;DHT22;42331;53.578;9.760;2023-07-13T04:22:34;14.40;99.90
56428;DHT22;42331;53.578;9.760;2023-07-13T04:25:05;14.50;99.90
56428;DHT22;42331;53.578;9.760;2023-07-13T04:27:35;14.50;99.90
56428;DHT22;42331;53.578;9.760;2023-07-13T04:30:07;14.50;99.90
56428;DHT22;42331;53.578;9.760;2023-07-13T04:32:38;14.60;99.90
56428;DHT22;42331;53.578;9.760;2023-07-13T04:35:08;14.60;99.90
56428;DHT22;42331;53.578;9.760;2023-07-13T04:37:40;14.60;99.90
56428;DHT22;42331;53.578;9.760;2023-07-13T04:40:11;14.70;99.90
56428;DHT22;42331;53.578;9.760;2023-07-13T04:42:43;14.70;99.90
56428;DHT22;42331;53.578;9.760;2023-07-13T04:45:14;14.70;99.90
56428;DHT22;42331;53.578;9.760;2023-07-13T04:47:45;14.70;99.90
56428;DHT22;42331;53.578;9.760;2023-07-13T04:50:16;14.70;99.90
56428;DHT22;42331;53.578;9.760;2023-07-13T04:52:51;14.80;99.90
56428;DHT22;42331;53.578;9.760;2023-07-13T04:55:22;14.80;99.90
56428;DHT22;42331;53.578;9.760;2023-07-13T04:57:52;14.80;99.90
56428;DHT22;42331;53.578;9.760;2023-07-13T05:00:23;14.90;99.90
56428;DHT22;42331;53.578;9.760;2023-07-13T05:02:56;15.00;99.90
56428;DHT22;42331;53.578;9.760;2023-07-13T05:05:27;15.10;99.90
56428;DHT22;42331;53.578;9.760;2023-07-13T05:07:58;15.20;99.90
56428;DHT22;42331;53.578;9.760;2023-07-13T05:10:29;15.20;99.90
56428;DHT22;42331;53.578;9.760;2023-07-13T05:12:59;15.40;99.90
56428;DHT22;42331;53.578;9.760;2023-07-13T05:15:30;15.60;99.90
56428;DHT22;42331;53.578;9.760;2023-07-13T05:18:01;15.60;99.90
56428;DHT22;42331;53.578;9.760;2023-07-13T05:20:31;15.60;99.90
56428;DHT22;42331;53.578;9.760;2023-07-13T05:23:02;15.60;99.90
56428;DHT22;42331;53.578;9.760;2023-07-13T05:25:33;15.60;99.90
56428;DHT22;42331;53.578;9.760;2023-07-13T05:28:04;15.60;99.90
56428;DHT22;42331;53.578;9.760;2023-07-13T05:30:34;15.60;99.90
56428;DHT22;42331;53.578;9.760;2023-07-13T05:33:05;15.70;99.90
56428;DHT22;42331;53.578;9.760;2023-07-13T05:35:36;15.70;99.90
56428;DHT22;42331;53.578;9.760;2023-07-13T05:38:07;15.70;99.90
56428;DHT22;42331;53.578;9.760;2023-07-13T05:40:38;15.80;99.90
56428;DHT22;42331;53.578;9.760;2023-07-13T05:43:10;15.80;99.90
56428;DHT22;42331;53.578;9.760;2023-07-13T05:45:41;15.80;99.90
56428;DHT22;42331;53.578;9.760;2023-07-13T05:48:12;15.80;99.90
56428;DHT22;42331;53.578;9.760;2023-07-13T05:50:43;15.80;99.90
56428;DHT22;42331;53.578;9.760;2023-07-13T05:53:13;15.80;99.90
56428;DHT22;42331;53.578;9.760;2023-07-13T05:55:45;15.80;99.90
56428;DHT22;42331;53.578;9.760;2023-07-13T05:58:21;15.80;99.90
56428;DHT22;42331;53.578;9.760;2023-07-13T06:01:03;15.90;99.90
56428;DHT22;42331;53.578;9.760;2023-07-13T06:03:34;16.00;99.90
56428;DHT22;42331;53.578;9.760;2023-07-13T06:06:06;16.00;99.90
56428;DHT22;42331;53.578;9.760;2023-07-13T06:08:37;16.00;99.90
56428;DHT22;42331;53.578;9.760;2023-07-13T06:11:17;16.00;99.90
56428;DHT22;42331;53.578;9.760;2023-07-13T06:13:48;16.10;99.90
56428;DHT22;42331;53.578;9.760;2023-07-13T06:16:19;16.20;99.90
56428;DHT22;42331;53.578;9.760;2023-07-13T06:18:50;16.20;99.90
56428;DHT22;42331;53.578;9.760;2023-07-13T06:21:22;16.30;99.90
56428;DHT22;42331;53.578;9.760;2023-07-13T06:23:53;16.40;99.90
56428;DHT22;42331;53.578;9.760;2023-07-13T06:26:24;16.40;99.90
56428;DHT22;42331;53.578;9.760;2023-07-13T06:28:54;16.40;99.90
56428;DHT22;42331;53.578;9.760;2023-07-13T06:31:25;16.40;99.90
56428;DHT22;42331;53.578;9.760;2023-07-13T06:33:56;16.40;99.90
56428;DHT22;42331;53.578;9.760;2023-07-13T06:36:27;16.50;99.90
56428;DHT22;42331;53.578;9.760;2023-07-13T06:38:57;16.50;99.90
56428;DHT22;42331;53.578;9.760;2023-07-13T06:41:28;16.70;99.90
56428;DHT22;42331;53.578;9.760;2023-07-13T06:44:01;16.80;99.90
56428;DHT22;42331;53.578;9.760;2023-07-13T06:46:32;16.80;99.90
56428;DHT22;42331;53.578;9.760;2023-07-13T06:49:02;16.80;99.90
56428;DHT22;42331;53.578;9.760;2023-07-13T06:51:33;16.90;99.90
56428;DHT22;42331;53.578;9.760;2023-07-13T06:54:04;17.00;99.90
56428;DHT22;42331;53.578;9.760;2023-07-13T06:56:35;17.10;99.90
56428;DHT22;42331;53.578;9.760;2023-07-13T06:59:05;17.20;99.90
56428;DHT22;42331;53.578;9.760;2023-07-13T07:01:36;17.20;99.90
56428;DHT22;42331;53.578;9.760;2023-07-13T07:04:07;17.30;99.90
56428;DHT22;42331;53.578;9.760;2023-07-13T07:06:37;17.50;99.90
56428;DHT22;42331;53.578;9.760;2023-07-13T07:09:08;17.60;99.90
56428;DHT22;42331;53.578;9.760;2023-07-13T07:11:39;17.60;99.90
56428;DHT22;42331;53.578;9.760;2023-07-13T07:14:10;17.70;99.90
56428;DHT22;42331;53.578;9.760;2023-07-13T07:16:41;17.80;99.90
56428;DHT22;42331;53.578;9.760;2023-07-13T07:19:11;17.90;99.90
56428;DHT22;42331;53.578;9.760;2023-07-13T07:21:42;18.00;99.90
56428;DHT22;42331;53.578;9.760;2023-07-13T07:24:13;18.10;99.90
56428;DHT22;42331;53.578;9.760;2023-07-13T07:26:43;18.20;99.90
56428;DHT22;42331;53.578;9.760;2023-07-13T07:29:14;18.20;99.90
56428;DHT22;42331;53.578;9.760;2023-07-13T07:31:45;18.20;99.90
56428;DHT22;42331;53.578;9.760;2023-07-13T07:34:15;18.20;99.90
56428;DHT22;42331;53.578;9.760;2023-07-13T07:36:46;18.10;99.90
56428;DHT22;42331;53.578;9.760;2023-07-13T07:39:17;18.00;99.90
56428;DHT22;42331;53.578;9.760;2023-07-13T07:41:48;18.10;99.90
56428;DHT22;42331;53.578;9.760;2023-07-13T07:44:18;18.20;99.90
56428;DHT22;42331;53.578;9.760;2023-07-13T07:46:49;18.30;99.90
56428;DHT22;42331;53.578;9.760;2023-07-13T07:49:20;18.20;99.90
56428;DHT22;42331;53.578;9.760;2023-07-13T07:51:51;18.20;99.90
56428;DHT22;42331;53.578;9.760;2023-07-13T07:54:22;18.30;99.90
56428;DHT22;42331;53.578;9.760;2023-07-13T07:56:53;18.10;99.90
56428;DHT22;42331;53.578;9.760;2023-07-13T07:59:24;18.10;99.90
56428;DHT22;42331;53.578;9.760;2023-07-13T08:01:55;18.40;99.90
56428;DHT22;42331;53.578;9.760;2023-07-13T08:04:25;18.50;99.90
56428;DHT22;42331;53.578;9.760;2023-07-13T08:06:56;18.60;99.90
56428;DHT22;42331;53.578;9.760;2023-07-13T08:09:28;18.70;99.90
56428;DHT22;42331;53.578;9.760;2023-07-13T08:11:59;18.60;99.90
56428;DHT22;42331;53.578;9.760;2023-07-13T08:14:30;18.50;99.90
56428;DHT22;42331;53.578;9.760;2023-07-13T08:17:01;18.60;99.90
56428;DHT22;42331;53.578;9.760;2023-07-13T08:19:31;18.70;99.90
56428;DHT22;42331;53.578;9.760;2023-07-13T08:22:02;18.70;99.90
56428;DHT22;42331;53.578;9.760;2023-07-13T08:24:33;18.70;99.90
56428;DHT22;42331;53.578;9.760;2023-07-13T08:27:04;18.70;99.90
56428;DHT22;42331;53.578;9.760;2023-07-13T08:29:35;18.80;99.90
56428;DHT22;42331;53.578;9.760;2023-07-13T08:32:07;19.00;99.90
56428;DHT22;42331;53.578;9.760;2023-07-13T08:34:41;19.10;99.90
56428;DHT22;42331;53.578;9.760;2023-07-13T08:37:12;19.30;99.90
56428;DHT22;42331;53.578;9.760;2023-07-13T08:39:43;19.30;99.90
56428;DHT22;42331;53.578;9.760;2023-07-13T08:45:21;19.40;99.90
56428;DHT22;42331;53.578;9.760;2023-07-13T08:48:19;19.60;99.90
56428;DHT22;42331;53.578;9.760;2023-07-13T08:53:36;19.90;99.90
56428;DHT22;42331;53.578;9.760;2023-07-13T08:56:35;20.10;99.90
56428;DHT22;42331;53.578;9.760;2023-07-13T08:59:15;20.30;99.90
56428;DHT22;42331;53.578;9.760;2023-07-13T09:02:06;20.50;99.90
56428;DHT22;42331;53.578;9.760;2023-07-13T09:04:50;20.40;99.90
56428;DHT22;42331;53.578;9.760;2023-07-13T09:07:30;20.70;99.90
56428;DHT22;42331;53.578;9.760;2023-07-13T09:13:31;20.70;99.90
56428;DHT22;42331;53.578;9.760;2023-07-13T09:16:05;20.80;99.90
56428;DHT22;42331;53.578;9.760;2023-07-13T09:18:39;20.90;99.90
56428;DHT22;42331;53.578;9.760;2023-07-13T09:23:56;20.80;99.90
56428;DHT22;42331;53.578;9.760;2023-07-13T09:26:32;20.50;99.90
56428;DHT22;42331;53.578;9.760;2023-07-13T09:29:13;20.70;99.90
56428;DHT22;42331;53.578;9.760;2023-07-13T09:31:49;20.90;99.90
56428;DHT22;42331;53.578;9.760;2023-07-13T09:34:22;21.00;99.90
56428;DHT22;42331;53.578;9.760;2023-07-13T09:36:53;21.30;99.90
56428;DHT22;42331;53.578;9.760;2023-07-13T09:39:37;21.70;99.90
56428;DHT22;42331;53.578;9.760;2023-07-13T09:44:53;21.30;99.90
56428;DHT22;42331;53.578;9.760;2023-07-13T09:47:33;21.40;99.90
56428;DHT22;42331;53.578;9.760;2023-07-13T09:50:15;21.40;99.90
56428;DHT22;42331;53.578;9.760;2023-07-13T09:52:50;21.40;99.90
56428;DHT22;42331;53.578;9.760;2023-07-13T09:55:37;21.30;99.90
56428;DHT22;42331;53.578;9.760;2023-07-13T09:58:18;21.20;99.90
56428;DHT22;42331;53.578;9.760;2023-07-13T10:00:56;21.00;99.90
56428;DHT22;42331;53.578;9.760;2023-07-13T10:03:29;20.70;99.90
56428;DHT22;42331;53.578;9.760;2023-07-13T10:06:13;20.40;99.90
56428;DHT22;42331;53.578;9.760;2023-07-13T10:08:45;20.80;99.90
56428;DHT22;42331;53.578;9.760;2023-07-13T10:11:21;20.90;99.90
56428;DHT22;42331;53.578;9.760;2023-07-13T10:13:57;20.70;99.90
56428;DHT22;42331;53.578;9.760;2023-07-13T10:16:32;21.30;99.90
56428;DHT22;42331;53.578;9.760;2023-07-13T10:19:15;22.00;99.90
56428;DHT22;42331;53.578;9.760;2023-07-13T10:21:55;22.90;99.90
56428;DHT22;42331;53.578;9.760;2023-07-13T10:24:31;23.70;99.90
56428;DHT22;42331;53.578;9.760;2023-07-13T10:30:09;24.20;99.90
56428;DHT22;42331;53.578;9.760;2023-07-13T10:32:43;23.50;99.90
56428;DHT22;42331;53.578;9.760;2023-07-13T10:35:17;22.70;99.90
56428;DHT22;42331;53.578;9.760;2023-07-13T10:38:10;22.70;99.90
56428;DHT22;42331;53.578;9.760;2023-07-13T10:40:45;22.30;99.90
56428;DHT22;42331;53.578;9.760;2023-07-13T10:43:26;22.50;99.90
56428;DHT22;42331;53.578;9.760;2023-07-13T10:45:59;23.20;99.90
56428;DHT22;42331;53.578;9.760;2023-07-13T10:48:32;24.10;99.90
56428;DHT22;42331;53.578;9.760;2023-07-13T10:51:06;23.00;99.90
56428;DHT22;42331;53.578;9.760;2023-07-13T10:53:38;22.60;99.90
56428;DHT22;42331;53.578;9.760;2023-07-13T10:56:26;22.90;99.90
56428;DHT22;42331;53.578;9.760;2023-07-13T10:59:17;23.40;99.90
56428;DHT22;42331;53.578;9.760;2023-07-13T11:04:49;22.20;99.90
56428;DHT22;42331;53.578;9.760;2023-07-13T11:07:26;21.90;99.90
56428;DHT22;42331;53.578;9.760;2023-07-13T11:10:02;21.80;99.90
56428;DHT22;42331;53.578;9.760;2023-07-13T11:12:53;21.80;99.90
56428;DHT22;42331;53.578;9.760;2023-07-13T11:15:32;21.90;99.90
56428;DHT22;42331;53.578;9.760;2023-07-13T11:18:04;22.00;99.90
56428;DHT22;42331;53.578;9.760;2023-07-13T11:20:43;22.10;99.90
56428;DHT22;42331;53.578;9.760;2023-07-13T11:25:47;21.60;99.90
56428;DHT22;42331;53.578;9.760;2023-07-13T11:28:23;22.10;99.90
56428;DHT22;42331;53.578;9.760;2023-07-13T11:33:53;22.20;99.90
56428;DHT22;42331;53.578;9.760;2023-07-13T11:36:30;22.00;99.90
56428;DHT22;42331;53.578;9.760;2023-07-13T11:39:10;21.90;99.90
56428;DHT22;42331;53.578;9.760;2023-07-13T11:41:56;21.90;99.90
56428;DHT22;42331;53.578;9.760;2023-07-13T11:44:30;21.50;99.90
56428;DHT22;42331;53.578;9.760;2023-07-13T11:47:10;21.20;99.90
56428;DHT22;42331;53.578;9.760;2023-07-13T11:49:53;21.20;99.90
56428;DHT22;42331;53.578;9.760;2023-07-13T11:52:34;21.00;99.90
56428;DHT22;42331;53.578;9.760;2023-07-13T11:55:15;21.00;99.90
56428;DHT22;42331;53.578;9.760;2023-07-13T11:57:58;20.90;99.90
56428;DHT22;42331;53.578;9.760;2023-07-13T12:00:31;20.60;99.90
56428;DHT22;42331;53.578;9.760;2023-07-13T12:03:04;20.10;99.90
56428;DHT22;42331;53.578;9.760;2023-07-13T12:05:35;19.30;99.90
56428;DHT22;42331;53.578;9.760;2023-07-13T12:08:10;18.80;99.90
56428;DHT22;42331;53.578;9.760;2023-07-13T12:10:41;18.30;99.90
56428;DHT22;42331;53.578;9.760;2023-07-13T12:13:12;17.40;99.90
56428;DHT22;42331;53.578;9.760;2023-07-13T12:15:45;16.80;99.90
56428;DHT22;42331;53.578;9.760;2023-07-13T12:18:22;16.30;99.90
56428;DHT22;42331;53.578;9.760;2023-07-13T12:20:57;16.10;99.90
56428;DHT22;42331;53.578;9.760;2023-07-13T12:23:31;16.10;99.90
56428;DHT22;42331;53.578;9.760;2023-07-13T12:26:04;16.20;99.90
56428;DHT22;42331;53.578;9.760;2023-07-13T12:28:39;16.30;99.90
56428;DHT22;42331;53.578;9.760;2023-07-13T12:34:09;17.00;99.90
56428;DHT22;42331;53.578;9.760;2023-07-13T12:36:55;17.30;99.90
56428;DHT22;42331;53.578;9.760;2023-07-13T12:39:35;17.50;99.90
56428;DHT22;42331;53.578;9.760;2023-07-13T12:42:25;17.70;99.90
56428;DHT22;42331;53.578;9.760;2023-07-13T12:45:05;17.60;99.90
56428;DHT22;42331;53.578;9.760;2023-07-13T12:47:47;17.80;99.90
56428;DHT22;42331;53.578;9.760;2023-07-13T12:50:22;17.70;99.90
56428;DHT22;42331;53.578;9.760;2023-07-13T12:52:56;17.50;99.90
56428;DHT22;42331;53.578;9.760;2023-07-13T12:55:30;17.30;99.90
56428;DHT22;42331;53.578;9.760;2023-07-13T12:58:09;17.10;99.90
56428;DHT22;42331;53.578;9.760;2023-07-13T13:00:49;16.80;99.90
56428;DHT22;42331;53.578;9.760;2023-07-13T13:03:30;16.80;99.90
56428;DHT22;42331;53.578;9.760;2023-07-13T13:06:26;16.90;99.90
56428;DHT22;42331;53.578;9.760;2023-07-13T13:08:58;17.10;99.90
56428;DHT22;42331;53.578;9.760;2023-07-13T13:11:31;17.30;99.90
56428;DHT22;42331;53.578;9.760;2023-07-13T13:14:02;17.40;99.90
56428;DHT22;42331;53.578;9.760;2023-07-13T13:16:48;17.50;99.90
56428;DHT22;42331;53.578;9.760;2023-07-13T13:19:25;17.60;99.90
56428;DHT22;42331;53.578;9.760;2023-07-13T13:21:56;17.60;99.90
56428;DHT22;42331;53.578;9.760;2023-07-13T13:24:28;17.60;99.90
56428;DHT22;42331;53.578;9.760;2023-07-13T13:27:00;17.60;99.90
56428;DHT22;42331;53.578;9.760;2023-07-13T13:29:31;17.60;99.90
56428;DHT22;42331;53.578;9.760;2023-07-13T13:32:04;17.70;99.90
56428;DHT22;42331;53.578;9.760;2023-07-13T13:34:35;17.90;99.90
56428;DHT22;42331;53.578;9.760;2023-07-13T13:37:22;18.00;99.90
56428;DHT22;42331;53.578;9.760;2023-07-13T13:39:53;18.00;99.90
56428;DHT22;42331;53.578;9.760;2023-07-13T13:42:24;17.80;99.90
56428;DHT22;42331;53.578;9.760;2023-07-13T13:44:57;17.80;99.90
56428;DHT22;42331;53.578;9.760;2023-07-13T13:47:32;17.90;99.90
56428;DHT22;42331;53.578;9.760;2023-07-13T13:50:16;17.90;99.90
56428;DHT22;42331;53.578;9.760;2023-07-13T13:52:48;18.10;99.90
56428;DHT22;42331;53.578;9.760;2023-07-13T13:55:21;18.20;99.90
56428;DHT22;42331;53.578;9.760;2023-07-13T13:57:54;18.30;99.90
56428;DHT22;42331;53.578;9.760;2023-07-13T14:00:24;18.60;99.90
56428;DHT22;42331;53.578;9.760;2023-07-13T14:02:55;18.70;99.90
56428;DHT22;42331;53.578;9.760;2023-07-13T14:05:27;18.60;99.90
56428;DHT22;42331;53.578;9.760;2023-07-13T14:07:58;18.70;99.90
56428;DHT22;42331;53.578;9.760;2023-07-13T14:10:30;18.90;99.90
56428;DHT22;42331;53.578;9.760;2023-07-13T14:13:01;19.00;99.90
56428;DHT22;42331;53.578;9.760;2023-07-13T14:15:32;18.70;99.90
56428;DHT22;42331;53.578;9.760;2023-07-13T14:18:02;18.60;99.90
56428;DHT22;42331;53.578;9.760;2023-07-13T14:20:33;18.50;99.90
56428;DHT22;42331;53.578;9.760;2023-07-13T14:23:04;18.50;99.90
56428;DHT22;42331;53.578;9.760;2023-07-13T14:25:35;18.40;99.90
56428;DHT22;42331;53.578;9.760;2023-07-13T14:28:26;18.40;99.90
56428;DHT22;42331;53.578;9.760;2023-07-13T14:30:57;18.20;99.90
56428;DHT22;42331;53.578;9.760;2023-07-13T14:33:28;18.00;99.90
56428;DHT22;42331;53.578;9.760;2023-07-13T14:35:58;18.00;99.90
56428;DHT22;42331;53.578;9.760;2023-07-13T14:38:29;17.90;99.90
56428;DHT22;42331;53.578;9.760;2023-07-13T14:41:00;17.80;99.90
56428;DHT22;42331;53.578;9.760;2023-07-13T14:43:30;17.80;99.90
56428;DHT22;42331;53.578;9.760;2023-07-13T14:46:01;18.00;99.90
56428;DHT22;42331;53.578;9.760;2023-07-13T14:48:32;18.10;99.90
56428;DHT22;42331;53.578;9.760;2023-07-13T14:51:03;18.30;99.90
56428;DHT22;42331;53.578;9.760;2023-07-13T14:53:34;18.40;99.90
56428;DHT22;42331;53.578;9.760;2023-07-13T14:56:10;18.40;99.90
56428;DHT22;42331;53.578;9.760;2023-07-13T14:58:40;18.40;99.90
56428;DHT22;42331;53.578;9.760;2023-07-13T15:01:14;18.60;99.90
56428;DHT22;42331;53.578;9.760;2023-07-13T15:03:49;18.60;99.90
56428;DHT22;42331;53.578;9.760;2023-07-13T15:06:21;18.70;99.90
56428;DHT22;42331;53.578;9.760;2023-07-13T15:08:51;18.90;99.90
56428;DHT22;42331;53.578;9.760;2023-07-13T15:11:22;18.90;99.90
56428;DHT22;42331;53.578;9.760;2023-07-13T15:13:53;18.80;99.90
56428;DHT22;42331;53.578;9.760;2023-07-13T15:16:25;18.70;99.90
56428;DHT22;42331;53.578;9.760;2023-07-13T15:18:56;18.60;99.90
56428;DHT22;42331;53.578;9.760;2023-07-13T15:21:29;18.60;99.90
56428;DHT22;42331;53.578;9.760;2023-07-13T15:24:05;18.70;99.90
56428;DHT22;42331;53.578;9.760;2023-07-13T15:26:39;18.60;99.90
56428;DHT22;42331;53.578;9.760;2023-07-13T15:29:09;18.50;99.90
56428;DHT22;42331;53.578;9.760;2023-07-13T15:31:40;18.60;99.90
56428;DHT22;42331;53.578;9.760;2023-07-13T15:34:18;18.60;99.90
56428;DHT22;42331;53.578;9.760;2023-07-13T15:36:51;18.70;99.90
56428;DHT22;42331;53.578;9.760;2023-07-13T15:39:22;18.80;99.90
56428;DHT22;42331;53.578;9.760;2023-07-13T15:41:52;19.00;99.90
56428;DHT22;42331;53.578;9.760;2023-07-13T15:44:29;19.10;99.90
56428;DHT22;42331;53.578;9.760;2023-07-13T15:47:00;19.00;99.90
56428;DHT22;42331;53.578;9.760;2023-07-13T15:49:33;19.00;99.90
56428;DHT22;42331;53.578;9.760;2023-07-13T15:52:04;19.00;99.90
56428;DHT22;42331;53.578;9.760;2023-07-13T15:54:36;19.00;99.90
56428;DHT22;42331;53.578;9.760;2023-07-13T15:57:09;19.00;99.90
56428;DHT22;42331;53.578;9.760;2023-07-13T15:59:42;18.90;99.90
56428;DHT22;42331;53.578;9.760;2023-07-13T16:02:17;18.70;99.90
56428;DHT22;42331;53.578;9.760;2023-07-13T16:04:48;18.60;99.90
56428;DHT22;42331;53.578;9.760;2023-07-13T16:07:18;18.60;99.90
56428;DHT22;42331;53.578;9.760;2023-07-13T16:09:49;18.50;99.90
56428;DHT22;42331;53.578;9.760;2023-07-13T16:12:20;18.40;99.90
56428;DHT22;42331;53.578;9.760;2023-07-13T16:14:52;18.30;99.90
56428;DHT22;42331;53.578;9.760;2023-07-13T16:17:23;18.10;99.90
56428;DHT22;42331;53.578;9.760;2023-07-13T16:19:54;17.90;99.90
56428;DHT22;42331;53.578;9.760;2023-07-13T16:22:26;17.80;99.90
56428;DHT22;42331;53.578;9.760;2023-07-13T16:24:57;17.70;99.90
56428;DHT22;42331;53.578;9.760;2023-07-13T16:27:29;17.80;99.90
56428;DHT22;42331;53.578;9.760;2023-07-13T16:30:00;17.80;99.90
56428;DHT22;42331;53.578;9.760;2023-07-13T16:32:36;17.80;99.90
56428;DHT22;42331;53.578;9.760;2023-07-13T16:35:08;17.80;99.90
56428;DHT22;42331;53.578;9.760;2023-07-13T16:37:39;17.90;99.90